sensor_id;sensor_type;location;lat;lon;timestamp;pressure;altitude;pressure_sealevel;temperature;humidity
41632;BME280;37452;51.938;4.624;2023-08-17T00:02:11;76710.06;;;-142.75;100.00
41632;BME280;37452;51.938;4.624;2023-08-17T00:04:37;76729.75;;;-142.75;100.00
41632;BME280;37452;51.938;4.624;2023-08-17T00:07:02;76715.97;;;-142.75;100.00
41632;BME280;37452;51.938;4.624;2023-08-17T00:09:28;76712.03;;;-142.75;100.00
41632;BME280;37452;51.938;4.624;2023-08-17T00:11:53;76725.81;;;-142.75;100.00
41632;BME280;37452;51.938;4.624;2023-08-17T00:14:18;76723.84;;;-142.75;100.00
41632;BME280;37452;51.938;4.624;2023-08-17T00:16:44;76715.97;;;-142.75;100.00
41632;BME280;37452;51.938;4.624;2023-08-17T00:19:09;76723.84;;;-142.75;100.00
41632;BME280;37452;51.938;4.624;2023-08-17T00:21:35;76731.72;;;-142.75;100.00
41632;BME280;37452;51.938;4.624;2023-08-17T00:24:01;76727.78;;;-142.75;100.00
41632;BME280;37452;51.938;4.624;2023-08-17T00:26:26;76715.97;;;-142.75;100.00
41632;BME280;37452;51.938;4.624;2023-08-17T00:28:53;76723.84;;;-142.75;100.00
41632;BME280;37452;51.938;4.624;2023-08-17T00:31:18;76717.94;;;-142.75;100.00
41632;BME280;37452;51.938;4.624;2023-08-17T00:33:43;76731.72;;;-142.75;100.00
41632;BME280;37452;51.938;4.624;2023-08-17T00:36:09;76725.81;;;-142.75;100.00
41632;BME280;37452;51.938;4.624;2023-08-17T00:38:34;76723.84;;;-142.75;100.00
41632;BME280;37452;51.938;4.624;2023-08-17T00:40:59;76731.72;;;-142.75;100.00
41632;BME280;37452;51.938;4.624;2023-08-17T00:43:25;76749.44;;;-142.75;100.00
41632;BME280;37452;51.938;4.624;2023-08-17T00:45:50;76735.66;;;-142.75;100.00
41632;BME280;37452;51.938;4.624;2023-08-17T00:48:16;76733.69;;;-142.75;100.00
41632;BME280;37452;51.938;4.624;2023-08-17T00:50:43;76721.88;;;-142.75;100.00
41632;BME280;37452;51.938;4.624;2023-08-17T00:53:09;76751.41;;;-142.75;100.00
41632;BME280;37452;51.938;4.624;2023-08-17T00:55:39;76727.78;;;-142.75;100.00
41632;BME280;37452;51.938;4.624;2023-08-17T00:58:05;76727.78;;;-142.75;100.00
41632;BME280;37452;51.938;4.624;2023-08-17T01:00:31;76739.59;;;-142.75;100.00
41632;BME280;37452;51.938;4.624;2023-08-17T01:02:56;76723.84;;;-142.75;100.00
41632;BME280;37452;51.938;4.624;2023-08-17T01:05:23;76719.91;;;-142.75;100.00
41632;BME280;37452;51.938;4.624;2023-08-17T01:07:49;76717.94;;;-142.75;100.00
41632;BME280;37452;51.938;4.624;2023-08-17T01:10:14;76721.88;;;-142.75;100.00
41632;BME280;37452;51.938;4.624;2023-08-17T01:15:24;76706.13;;;-142.75;100.00
41632;BME280;37452;51.938;4.624;2023-08-17T01:18:26;76708.09;;;-142.75;100.00
41632;BME280;37452;51.938;4.624;2023-08-17T01:20:54;76698.25;;;-142.75;100.00
41632;BME280;37452;51.938;4.624;2023-08-17T01:23:20;76710.06;;;-142.75;100.00
41632;BME280;37452;51.938;4.624;2023-08-17T01:25:45;76704.16;;;-142.75;100.00
41632;BME280;37452;51.938;4.624;2023-08-17T01:28:11;76719.91;;;-142.75;100.00
41632;BME280;37452;51.938;4.624;2023-08-17T01:30:46;76725.81;;;-142.75;100.00
41632;BME280;37452;51.938;4.624;2023-08-17T01:33:15;76712.03;;;-142.75;100.00
41632;BME280;37452;51.938;4.624;2023-08-17T01:36:03;76712.03;;;-142.75;100.00
41632;BME280;37452;51.938;4.624;2023-08-17T01:38:31;76723.84;;;-142.75;100.00
41632;BME280;37452;51.938;4.624;2023-08-17T01:40:58;76723.84;;;-142.75;100.00
41632;BME280;37452;51.938;4.624;2023-08-17T01:43:26;76725.81;;;-142.75;100.00
41632;BME280;37452;51.938;4.624;2023-08-17T01:45:52;76721.88;;;-142.75;100.00
41632;BME280;37452;51.938;4.624;2023-08-17T01:48:17;76729.75;;;-142.75;100.00
41632;BME280;37452;51.938;4.624;2023-08-17T01:50:43;76715.97;;;-142.75;100.00
41632;BME280;37452;51.938;4.624;2023-08-17T01:53:08;76719.91;;;-142.75;100.00
41632;BME280;37452;51.938;4.624;2023-08-17T01:55:34;76735.66;;;-142.75;100.00
41632;BME280;37452;51.938;4.624;2023-08-17T01:58:00;76755.34;;;-142.75;100.00
41632;BME280;37452;51.938;4.624;2023-08-17T02:00:26;76747.47;;;-142.75;100.00
41632;BME280;37452;51.938;4.624;2023-08-17T02:02:51;76735.66;;;-142.75;100.00
41632;BME280;37452;51.938;4.624;2023-08-17T02:05:17;76735.66;;;-142.75;100.00
41632;BME280;37452;51.938;4.624;2023-08-17T02:07:42;76755.34;;;-142.75;100.00
41632;BME280;37452;51.938;4.624;2023-08-17T02:10:08;76753.38;;;-142.75;100.00
41632;BME280;37452;51.938;4.624;2023-08-17T02:12:33;76761.25;;;-142.75;100.00
41632;BME280;37452;51.938;4.624;2023-08-17T02:14:58;76767.16;;;-142.75;100.00
41632;BME280;37452;51.938;4.624;2023-08-17T02:17:24;76765.19;;;-142.75;100.00
41632;BME280;37452;51.938;4.624;2023-08-17T02:19:49;76765.19;;;-142.75;100.00
41632;BME280;37452;51.938;4.624;2023-08-17T02:22:15;76757.31;;;-142.75;100.00
41632;BME280;37452;51.938;4.624;2023-08-17T02:24:40;76767.16;;;-142.75;100.00
41632;BME280;37452;51.938;4.624;2023-08-17T02:27:06;76763.22;;;-142.75;100.00
41632;BME280;37452;51.938;4.624;2023-08-17T02:29:32;76775.03;;;-142.75;100.00
41632;BME280;37452;51.938;4.624;2023-08-17T02:31:57;76755.34;;;-142.75;100.00
41632;BME280;37452;51.938;4.624;2023-08-17T02:34:22;76759.28;;;-142.75;100.00
41632;BME280;37452;51.938;4.624;2023-08-17T02:36:48;76759.28;;;-142.75;100.00
41632;BME280;37452;51.938;4.624;2023-08-17T02:39:13;76761.25;;;-142.75;100.00
41632;BME280;37452;51.938;4.624;2023-08-17T02:41:38;76775.03;;;-142.75;100.00
41632;BME280;37452;51.938;4.624;2023-08-17T02:44:04;76771.09;;;-142.75;100.00
41632;BME280;37452;51.938;4.624;2023-08-17T02:46:29;76767.16;;;-142.75;100.00
41632;BME280;37452;51.938;4.624;2023-08-17T02:48:55;76749.44;;;-142.75;100.00
41632;BME280;37452;51.938;4.624;2023-08-17T02:51:20;76759.28;;;-142.75;100.00
41632;BME280;37452;51.938;4.624;2023-08-17T02:53:45;76749.44;;;-142.75;100.00
41632;BME280;37452;51.938;4.624;2023-08-17T02:56:11;76747.47;;;-142.75;100.00
41632;BME280;37452;51.938;4.624;2023-08-17T02:58:40;76745.50;;;-142.75;100.00
41632;BME280;37452;51.938;4.624;2023-08-17T03:01:06;76755.34;;;-142.75;100.00
41632;BME280;37452;51.938;4.624;2023-08-17T03:03:31;76747.47;;;-142.75;100.00
41632;BME280;37452;51.938;4.624;2023-08-17T03:05:57;76757.31;;;-142.75;100.00
41632;BME280;37452;51.938;4.624;2023-08-17T03:08:22;76743.53;;;-142.75;100.00
41632;BME280;37452;51.938;4.624;2023-08-17T03:10:48;76739.59;;;-142.75;100.00
41632;BME280;37452;51.938;4.624;2023-08-17T03:13:13;76757.31;;;-142.75;100.00
41632;BME280;37452;51.938;4.624;2023-08-17T03:15:38;76761.25;;;-142.75;100.00
41632;BME280;37452;51.938;4.624;2023-08-17T03:18:05;76755.34;;;-142.75;100.00
41632;BME280;37452;51.938;4.624;2023-08-17T03:20:31;76747.47;;;-142.75;100.00
41632;BME280;37452;51.938;4.624;2023-08-17T03:22:56;76739.59;;;-142.75;100.00
41632;BME280;37452;51.938;4.624;2023-08-17T03:25:21;76745.50;;;-142.75;100.00
41632;BME280;37452;51.938;4.624;2023-08-17T03:27:47;76743.53;;;-142.75;100.00
41632;BME280;37452;51.938;4.624;2023-08-17T03:30:12;76747.47;;;-142.75;100.00
41632;BME280;37452;51.938;4.624;2023-08-17T03:32:37;76739.59;;;-142.75;100.00
41632;BME280;37452;51.938;4.624;2023-08-17T03:35:03;76745.50;;;-142.75;100.00
41632;BME280;37452;51.938;4.624;2023-08-17T03:37:29;76757.31;;;-142.75;100.00
41632;BME280;37452;51.938;4.624;2023-08-17T03:39:54;76767.16;;;-142.75;100.00
41632;BME280;37452;51.938;4.624;2023-08-17T03:42:19;76747.47;;;-142.75;100.00
41632;BME280;37452;51.938;4.624;2023-08-17T03:44:45;76745.50;;;-142.75;100.00
41632;BME280;37452;51.938;4.624;2023-08-17T03:47:10;76743.53;;;-142.75;100.00
41632;BME280;37452;51.938;4.624;2023-08-17T03:49:36;76743.53;;;-142.75;100.00
41632;BME280;37452;51.938;4.624;2023-08-17T03:52:02;76739.59;;;-142.75;100.00
41632;BME280;37452;51.938;4.624;2023-08-17T03:54:27;76735.66;;;-142.75;100.00
41632;BME280;37452;51.938;4.624;2023-08-17T03:56:52;76741.56;;;-142.75;100.00
41632;BME280;37452;51.938;4.624;2023-08-17T03:59:18;76731.72;;;-142.75;100.00
41632;BME280;37452;51.938;4.624;2023-08-17T04:01:43;76743.53;;;-142.75;100.00
41632;BME280;37452;51.938;4.624;2023-08-17T04:04:09;76751.41;;;-142.75;100.00
41632;BME280;37452;51.938;4.624;2023-08-17T04:06:35;76743.53;;;-142.75;100.00
41632;BME280;37452;51.938;4.624;2023-08-17T04:09:01;76731.72;;;-142.75;100.00
41632;BME280;37452;51.938;4.624;2023-08-17T04:11:27;76741.56;;;-142.75;100.00
41632;BME280;37452;51.938;4.624;2023-08-17T04:13:52;76741.56;;;-142.75;100.00
41632;BME280;37452;51.938;4.624;2023-08-17T04:16:17;76745.50;;;-142.75;100.00
41632;BME280;37452;51.938;4.624;2023-08-17T04:18:43;76735.66;;;-142.75;100.00
41632;BME280;37452;51.938;4.624;2023-08-17T04:21:08;76735.66;;;-142.75;100.00
41632;BME280;37452;51.938;4.624;2023-08-17T04:23:34;76735.66;;;-142.75;100.00
41632;BME280;37452;51.938;4.624;2023-08-17T04:25:59;76739.59;;;-142.75;100.00
41632;BME280;37452;51.938;4.624;2023-08-17T04:28:24;76743.53;;;-142.75;100.00
41632;BME280;37452;51.938;4.624;2023-08-17T04:30:50;76739.59;;;-142.75;100.00
41632;BME280;37452;51.938;4.624;2023-08-17T04:33:15;76759.28;;;-142.75;100.00
41632;BME280;37452;51.938;4.624;2023-08-17T04:35:40;76749.44;;;-142.75;100.00
41632;BME280;37452;51.938;4.624;2023-08-17T04:38:06;76745.50;;;-142.75;100.00
41632;BME280;37452;51.938;4.624;2023-08-17T04:40:31;76755.34;;;-142.75;100.00
41632;BME280;37452;51.938;4.624;2023-08-17T04:42:57;76755.34;;;-142.75;100.00
41632;BME280;37452;51.938;4.624;2023-08-17T04:45:22;76741.56;;;-142.75;100.00
41632;BME280;37452;51.938;4.624;2023-08-17T04:47:48;76749.44;;;-142.75;100.00
41632;BME280;37452;51.938;4.624;2023-08-17T04:50:14;76745.50;;;-142.75;100.00
41632;BME280;37452;51.938;4.624;2023-08-17T04:52:44;76751.41;;;-142.75;100.00
41632;BME280;37452;51.938;4.624;2023-08-17T04:55:10;76745.50;;;-142.75;100.00
41632;BME280;37452;51.938;4.624;2023-08-17T04:57:36;76743.53;;;-142.75;100.00
41632;BME280;37452;51.938;4.624;2023-08-17T05:00:01;76755.34;;;-142.75;100.00
41632;BME280;37452;51.938;4.624;2023-08-17T05:02:27;76749.44;;;-142.75;100.00
41632;BME280;37452;51.938;4.624;2023-08-17T05:04:52;76737.63;;;-142.75;100.00
41632;BME280;37452;51.938;4.624;2023-08-17T05:07:17;76725.81;;;-142.75;100.00
41632;BME280;37452;51.938;4.624;2023-08-17T05:09:43;76735.66;;;-142.75;100.00
41632;BME280;37452;51.938;4.624;2023-08-17T05:12:08;76719.91;;;-142.75;100.00
41632;BME280;37452;51.938;4.624;2023-08-17T05:14:33;76721.88;;;-142.75;100.00
41632;BME280;37452;51.938;4.624;2023-08-17T05:16:59;76723.84;;;-142.75;100.00
41632;BME280;37452;51.938;4.624;2023-08-17T05:19:24;76719.91;;;-142.75;100.00
41632;BME280;37452;51.938;4.624;2023-08-17T05:21:50;76735.66;;;-142.75;100.00
41632;BME280;37452;51.938;4.624;2023-08-17T05:24:16;76767.16;;;-142.75;100.00
41632;BME280;37452;51.938;4.624;2023-08-17T05:26:43;76777.00;;;-142.75;100.00
41632;BME280;37452;51.938;4.624;2023-08-17T05:29:08;76773.06;;;-142.75;100.00
41632;BME280;37452;51.938;4.624;2023-08-17T05:31:34;76763.22;;;-142.75;100.00
41632;BME280;37452;51.938;4.624;2023-08-17T05:33:59;76747.47;;;-142.75;100.00
41632;BME280;37452;51.938;4.624;2023-08-17T05:36:24;76767.16;;;-142.75;100.00
41632;BME280;37452;51.938;4.624;2023-08-17T05:38:50;76747.47;;;-142.75;100.00
41632;BME280;37452;51.938;4.624;2023-08-17T05:41:15;76725.81;;;-142.75;100.00
41632;BME280;37452;51.938;4.624;2023-08-17T05:44:00;76723.84;;;-142.75;100.00
41632;BME280;37452;51.938;4.624;2023-08-17T05:46:25;76712.03;;;-142.75;100.00
41632;BME280;37452;51.938;4.624;2023-08-17T05:48:51;76712.03;;;-142.75;100.00
41632;BME280;37452;51.938;4.624;2023-08-17T05:51:16;76715.97;;;-142.75;100.00
41632;BME280;37452;51.938;4.624;2023-08-17T05:53:41;76712.03;;;-142.75;100.00
41632;BME280;37452;51.938;4.624;2023-08-17T05:56:07;76712.03;;;-142.75;100.00
41632;BME280;37452;51.938;4.624;2023-08-17T05:58:32;76747.47;;;-142.75;100.00
41632;BME280;37452;51.938;4.624;2023-08-17T06:01:08;76735.66;;;-142.75;100.00
41632;BME280;37452;51.938;4.624;2023-08-17T06:03:34;76721.88;;;-142.75;100.00
41632;BME280;37452;51.938;4.624;2023-08-17T06:05:59;76725.81;;;-142.75;100.00
41632;BME280;37452;51.938;4.624;2023-08-17T06:08:25;76725.81;;;-142.75;100.00
41632;BME280;37452;51.938;4.624;2023-08-17T06:10:50;76725.81;;;-142.75;100.00
41632;BME280;37452;51.938;4.624;2023-08-17T06:13:15;76727.78;;;-142.75;100.00
41632;BME280;37452;51.938;4.624;2023-08-17T06:15:41;76723.84;;;-142.75;100.00
41632;BME280;37452;51.938;4.624;2023-08-17T06:18:06;76739.59;;;-142.75;100.00
41632;BME280;37452;51.938;4.624;2023-08-17T06:20:31;76733.69;;;-142.75;100.00
41632;BME280;37452;51.938;4.624;2023-08-17T06:22:57;76731.72;;;-142.75;100.00
41632;BME280;37452;51.938;4.624;2023-08-17T06:25:22;76735.66;;;-142.75;100.00
41632;BME280;37452;51.938;4.624;2023-08-17T06:27:51;76739.59;;;-142.75;100.00
41632;BME280;37452;51.938;4.624;2023-08-17T06:30:17;76739.59;;;-142.75;100.00
41632;BME280;37452;51.938;4.624;2023-08-17T06:32:42;76747.47;;;-142.75;100.00
41632;BME280;37452;51.938;4.624;2023-08-17T06:35:08;76731.72;;;-142.75;100.00
41632;BME280;37452;51.938;4.624;2023-08-17T06:37:33;76704.16;;;-142.75;100.00
41632;BME280;37452;51.938;4.624;2023-08-17T06:39:58;76696.28;;;-142.75;100.00
41632;BME280;37452;51.938;4.624;2023-08-17T06:42:24;76676.59;;;-142.75;100.00
41632;BME280;37452;51.938;4.624;2023-08-17T06:44:49;76682.50;;;-142.75;100.00
41632;BME280;37452;51.938;4.624;2023-08-17T06:47:14;76664.78;;;-142.75;100.00
41632;BME280;37452;51.938;4.624;2023-08-17T06:49:40;76651.00;;;-142.75;100.00
41632;BME280;37452;51.938;4.624;2023-08-17T06:52:05;76664.78;;;-142.75;100.00
41632;BME280;37452;51.938;4.624;2023-08-17T06:54:31;76651.00;;;-142.75;100.00
41632;BME280;37452;51.938;4.624;2023-08-17T06:56:57;76621.47;;;-142.75;100.00
41632;BME280;37452;51.938;4.624;2023-08-17T06:59:23;76586.03;;;-142.75;100.00
41632;BME280;37452;51.938;4.624;2023-08-17T07:01:48;76558.47;;;-142.75;100.00
41632;BME280;37452;51.938;4.624;2023-08-17T07:04:13;76572.25;;;-142.75;100.00
41632;BME280;37452;51.938;4.624;2023-08-17T07:06:39;76536.84;;;-142.75;100.00
41632;BME280;37452;51.938;4.624;2023-08-17T07:09:06;76503.38;;;-142.75;100.00
41632;BME280;37452;51.938;4.624;2023-08-17T07:11:31;76475.81;;;-142.75;100.00
41632;BME280;37452;51.938;4.624;2023-08-17T07:13:57;76481.72;;;-142.75;100.00
41632;BME280;37452;51.938;4.624;2023-08-17T07:16:22;76454.16;;;-142.75;100.00
41632;BME280;37452;51.938;4.624;2023-08-17T07:18:47;76475.81;;;-142.75;100.00
41632;BME280;37452;51.938;4.624;2023-08-17T07:21:13;76442.34;;;-142.75;100.00
41632;BME280;37452;51.938;4.624;2023-08-17T07:23:38;76450.22;;;-142.75;100.00
41632;BME280;37452;51.938;4.624;2023-08-17T07:26:03;76448.25;;;-142.75;100.00
41632;BME280;37452;51.938;4.624;2023-08-17T07:28:29;76436.44;;;-142.75;100.00
41632;BME280;37452;51.938;4.624;2023-08-17T07:30:54;76428.56;;;-142.75;100.00
41632;BME280;37452;51.938;4.624;2023-08-17T07:33:19;76422.66;;;-142.75;100.00
41632;BME280;37452;51.938;4.624;2023-08-17T07:35:45;76432.50;;;-142.75;100.00
41632;BME280;37452;51.938;4.624;2023-08-17T07:38:10;76444.31;;;-142.75;100.00
41632;BME280;37452;51.938;4.624;2023-08-17T07:40:36;76434.47;;;-142.75;100.00
41632;BME280;37452;51.938;4.624;2023-08-17T07:43:01;76418.72;;;-142.75;100.00
41632;BME280;37452;51.938;4.624;2023-08-17T07:45:27;76430.53;;;-142.75;100.00
41632;BME280;37452;51.938;4.624;2023-08-17T07:47:52;76438.41;;;-142.75;100.00
41632;BME280;37452;51.938;4.624;2023-08-17T07:50:18;76430.53;;;-142.75;100.00
41632;BME280;37452;51.938;4.624;2023-08-17T07:52:43;76424.63;;;-142.75;100.00
41632;BME280;37452;51.938;4.624;2023-08-17T07:55:09;76373.44;;;-142.75;100.00
41632;BME280;37452;51.938;4.624;2023-08-17T07:57:34;76367.53;;;-142.75;100.00
41632;BME280;37452;51.938;4.624;2023-08-17T07:59:59;76375.41;;;-142.75;100.00
41632;BME280;37452;51.938;4.624;2023-08-17T08:02:25;76401.00;;;-142.75;100.00
41632;BME280;37452;51.938;4.624;2023-08-17T08:04:50;76401.00;;;-142.75;100.00
41632;BME280;37452;51.938;4.624;2023-08-17T08:07:15;76365.56;;;-142.75;100.00
41632;BME280;37452;51.938;4.624;2023-08-17T08:09:41;76351.81;;;-142.75;100.00
41632;BME280;37452;51.938;4.624;2023-08-17T08:12:06;76308.50;;;-142.75;100.00
41632;BME280;37452;51.938;4.624;2023-08-17T08:14:33;76298.66;;;-142.75;100.00
41632;BME280;37452;51.938;4.624;2023-08-17T08:16:59;76280.94;;;-142.75;100.00
41632;BME280;37452;51.938;4.624;2023-08-17T08:19:24;76292.75;;;-142.75;100.00
41632;BME280;37452;51.938;4.624;2023-08-17T08:21:49;76251.41;;;-142.75;100.00
41632;BME280;37452;51.938;4.624;2023-08-17T08:24:15;76259.28;;;-142.75;100.00
41632;BME280;37452;51.938;4.624;2023-08-17T08:26:40;76290.78;;;-142.75;100.00
41632;BME280;37452;51.938;4.624;2023-08-17T08:29:05;76225.81;;;-142.75;100.00
41632;BME280;37452;51.938;4.624;2023-08-17T08:31:31;76200.25;;;-142.75;100.00
41632;BME280;37452;51.938;4.624;2023-08-17T08:33:56;76200.25;;;-142.75;100.00
41632;BME280;37452;51.938;4.624;2023-08-17T08:36:21;76188.44;;;-142.75;100.00
41632;BME280;37452;51.938;4.624;2023-08-17T08:38:47;76190.41;;;-142.75;100.00
41632;BME280;37452;51.938;4.624;2023-08-17T08:41:12;76176.63;;;-142.75;100.00
41632;BME280;37452;51.938;4.624;2023-08-17T08:43:38;76141.19;;;-142.75;100.00
41632;BME280;37452;51.938;4.624;2023-08-17T08:46:04;76139.22;;;-142.75;100.00
41632;BME280;37452;51.938;4.624;2023-08-17T08:48:31;76133.31;;;-142.75;100.00
41632;BME280;37452;51.938;4.624;2023-08-17T08:50:59;76145.13;;;-142.75;100.00
41632;BME280;37452;51.938;4.624;2023-08-17T08:53:38;76127.41;;;-142.75;100.00
41632;BME280;37452;51.938;4.624;2023-08-17T08:56:11;76101.81;;;-142.75;100.00
41632;BME280;37452;51.938;4.624;2023-08-17T08:58:38;76095.91;;;-142.75;100.00
41632;BME280;37452;51.938;4.624;2023-08-17T09:01:06;76158.91;;;-142.75;100.00
41632;BME280;37452;51.938;4.624;2023-08-17T09:03:32;76115.59;;;-142.75;100.00
41632;BME280;37452;51.938;4.624;2023-08-17T09:05:58;76066.41;;;-142.75;100.00
41632;BME280;37452;51.938;4.624;2023-08-17T09:08:27;76072.31;;;-142.75;100.00
41632;BME280;37452;51.938;4.624;2023-08-17T09:10:54;76072.31;;;-142.75;100.00
41632;BME280;37452;51.938;4.624;2023-08-17T09:13:19;76076.22;;;-142.75;100.00
41632;BME280;37452;51.938;4.624;2023-08-17T09:15:44;76032.94;;;-142.75;100.00
41632;BME280;37452;51.938;4.624;2023-08-17T09:18:10;76007.34;;;-142.75;100.00
41632;BME280;37452;51.938;4.624;2023-08-17T09:20:44;76042.78;;;-142.75;100.00
41632;BME280;37452;51.938;4.624;2023-08-17T09:23:15;76046.72;;;-142.75;100.00
41632;BME280;37452;51.938;4.624;2023-08-17T09:25:42;76042.78;;;-142.75;100.00
41632;BME280;37452;51.938;4.624;2023-08-17T09:28:12;76074.25;;;-142.75;100.00
41632;BME280;37452;51.938;4.624;2023-08-17T09:30:53;76050.66;;;-142.75;100.00
41632;BME280;37452;51.938;4.624;2023-08-17T09:33:20;76097.88;;;-142.75;100.00
41632;BME280;37452;51.938;4.624;2023-08-17T09:35:46;76076.22;;;-142.75;100.00
41632;BME280;37452;51.938;4.624;2023-08-17T09:38:11;76046.72;;;-142.75;100.00
41632;BME280;37452;51.938;4.624;2023-08-17T09:40:36;76005.38;;;-142.75;100.00
41632;BME280;37452;51.938;4.624;2023-08-17T09:43:02;76011.28;;;-142.75;100.00
41632;BME280;37452;51.938;4.624;2023-08-17T09:45:28;76044.75;;;-142.75;100.00
41632;BME280;37452;51.938;4.624;2023-08-17T09:47:54;76023.09;;;-142.75;100.00
41632;BME280;37452;51.938;4.624;2023-08-17T09:50:22;76040.81;;;-142.75;100.00
41632;BME280;37452;51.938;4.624;2023-08-17T09:52:52;76109.69;;;-142.75;100.00
41632;BME280;37452;51.938;4.624;2023-08-17T09:55:18;76141.19;;;-142.75;100.00
41632;BME280;37452;51.938;4.624;2023-08-17T09:57:45;76129.38;;;-142.75;100.00
41632;BME280;37452;51.938;4.624;2023-08-17T10:00:12;76121.50;;;-142.75;100.00
41632;BME280;37452;51.938;4.624;2023-08-17T10:02:38;76046.72;;;-142.75;100.00
41632;BME280;37452;51.938;4.624;2023-08-17T10:05:05;76046.72;;;-142.75;100.00
41632;BME280;37452;51.938;4.624;2023-08-17T10:07:31;76072.31;;;-142.75;100.00
41632;BME280;37452;51.938;4.624;2023-08-17T10:10:03;76066.41;;;-142.75;100.00
41632;BME280;37452;51.938;4.624;2023-08-17T10:12:32;76093.94;;;-142.75;100.00
41632;BME280;37452;51.938;4.624;2023-08-17T10:15:07;76088.03;;;-142.75;100.00
41632;BME280;37452;51.938;4.624;2023-08-17T10:17:44;76080.16;;;-142.75;100.00
41632;BME280;37452;51.938;4.624;2023-08-17T10:20:13;76090.00;;;-142.75;100.00
41632;BME280;37452;51.938;4.624;2023-08-17T10:22:43;76090.00;;;-142.75;100.00
41632;BME280;37452;51.938;4.624;2023-08-17T10:25:11;76082.13;;;-142.75;100.00
41632;BME280;37452;51.938;4.624;2023-08-17T10:27:40;76046.72;;;-142.75;100.00
41632;BME280;37452;51.938;4.624;2023-08-17T10:30:07;76086.06;;;-142.75;100.00
41632;BME280;37452;51.938;4.624;2023-08-17T10:32:33;76137.25;;;-142.75;100.00
41632;BME280;37452;51.938;4.624;2023-08-17T10:34:58;76133.31;;;-142.75;100.00
41632;BME280;37452;51.938;4.624;2023-08-17T10:37:25;76109.69;;;-142.75;100.00
41632;BME280;37452;51.938;4.624;2023-08-17T10:39:50;76111.66;;;-142.75;100.00
41632;BME280;37452;51.938;4.624;2023-08-17T10:42:30;76101.81;;;-142.75;100.00
41632;BME280;37452;51.938;4.624;2023-08-17T10:44:57;76093.94;;;-142.75;100.00
41632;BME280;37452;51.938;4.624;2023-08-17T10:47:26;76117.56;;;-142.75;100.00
41632;BME280;37452;51.938;4.624;2023-08-17T10:49:56;76125.44;;;-142.75;100.00
41632;BME280;37452;51.938;4.624;2023-08-17T10:52:27;76113.63;;;-142.75;100.00
41632;BME280;37452;51.938;4.624;2023-08-17T10:54:53;76156.94;;;-142.75;100.00
41632;BME280;37452;51.938;4.624;2023-08-17T11:00:16;76158.91;;;-142.75;100.00
41632;BME280;37452;51.938;4.624;2023-08-17T11:03:06;76117.56;;;-142.75;100.00
41632;BME280;37452;51.938;4.624;2023-08-17T11:08:07;76129.38;;;-142.75;100.00
41632;BME280;37452;51.938;4.624;2023-08-17T11:10:36;76141.19;;;-142.75;100.00
41632;BME280;37452;51.938;4.624;2023-08-17T11:13:04;76097.88;;;-142.75;100.00
41632;BME280;37452;51.938;4.624;2023-08-17T11:15:41;76046.72;;;-142.75;100.00
41632;BME280;37452;51.938;4.624;2023-08-17T11:18:10;76034.91;;;-142.75;100.00
41632;BME280;37452;51.938;4.624;2023-08-17T11:20:38;76013.25;;;-142.75;100.00
41632;BME280;37452;51.938;4.624;2023-08-17T11:23:04;76011.28;;;-142.75;100.00
41632;BME280;37452;51.938;4.624;2023-08-17T11:25:31;76030.97;;;-142.75;100.00
41632;BME280;37452;51.938;4.624;2023-08-17T11:27:56;76042.78;;;-142.75;100.00
41632;BME280;37452;51.938;4.624;2023-08-17T11:30:22;76046.72;;;-142.75;100.00
41632;BME280;37452;51.938;4.624;2023-08-17T11:32:50;76068.38;;;-142.75;100.00
41632;BME280;37452;51.938;4.624;2023-08-17T11:35:16;76070.34;;;-142.75;100.00
41632;BME280;37452;51.938;4.624;2023-08-17T11:37:41;76040.81;;;-142.75;100.00
41632;BME280;37452;51.938;4.624;2023-08-17T11:40:07;76038.84;;;-142.75;100.00
41632;BME280;37452;51.938;4.624;2023-08-17T11:42:36;76054.59;;;-142.75;100.00
41632;BME280;37452;51.938;4.624;2023-08-17T11:45:01;76074.25;;;-142.75;100.00
41632;BME280;37452;51.938;4.624;2023-08-17T11:47:27;76050.66;;;-142.75;100.00
41632;BME280;37452;51.938;4.624;2023-08-17T11:49:59;76029.00;;;-142.75;100.00
41632;BME280;37452;51.938;4.624;2023-08-17T11:52:26;76027.03;;;-142.75;100.00
41632;BME280;37452;51.938;4.624;2023-08-17T11:54:55;76025.06;;;-142.75;100.00
41632;BME280;37452;51.938;4.624;2023-08-17T11:57:21;76015.22;;;-142.75;100.00
41632;BME280;37452;51.938;4.624;2023-08-17T11:59:46;76007.34;;;-142.75;100.00
41632;BME280;37452;51.938;4.624;2023-08-17T12:02:12;76009.31;;;-142.75;100.00
41632;BME280;37452;51.938;4.624;2023-08-17T12:04:37;76050.66;;;-142.75;100.00
41632;BME280;37452;51.938;4.624;2023-08-17T12:07:03;76060.50;;;-142.75;100.00
41632;BME280;37452;51.938;4.624;2023-08-17T12:09:32;76074.25;;;-142.75;100.00
41632;BME280;37452;51.938;4.624;2023-08-17T12:12:00;76090.00;;;-142.75;100.00
41632;BME280;37452;51.938;4.624;2023-08-17T12:14:27;76088.03;;;-142.75;100.00
41632;BME280;37452;51.938;4.624;2023-08-17T12:16:55;76097.88;;;-142.75;100.00
41632;BME280;37452;51.938;4.624;2023-08-17T12:19:21;76056.56;;;-142.75;100.00
41632;BME280;37452;51.938;4.624;2023-08-17T12:21:48;76111.66;;;-142.75;100.00
41632;BME280;37452;51.938;4.624;2023-08-17T12:24:13;76088.03;;;-142.75;100.00
41632;BME280;37452;51.938;4.624;2023-08-17T12:26:46;76060.50;;;-142.75;100.00
41632;BME280;37452;51.938;4.624;2023-08-17T12:29:12;76074.25;;;-142.75;100.00
41632;BME280;37452;51.938;4.624;2023-08-17T12:31:38;76054.59;;;-142.75;100.00
41632;BME280;37452;51.938;4.624;2023-08-17T12:34:03;76058.53;;;-142.75;100.00
41632;BME280;37452;51.938;4.624;2023-08-17T12:36:31;76009.31;;;-142.75;100.00